KMSY/MSY METAR and TAF weather

Enter ICAO airport designator
Station Type Date Time Source
KMSY METAR 2021/07/30 05:53 UTC NOAA

KMSY 300553Z 00000KT 10SM CLR 28/24 A2999 RMK AO2 SLP158 T02780244 10328 20278 403440272 58012


Station Type Date Time Source
KMSY Decoded METAR 2021/07/30 05:53 UTC NOAA

NEW ORLEANS INTERNATIONAL AIRPORT, LA, United States (KMSY) 30-00N 90-15W 5M
Jul 30, 2021 - 01:53 AM EDT / 2021.07.30 0553 UTC
Wind: Calm:0
Visibility: 10 mile(s):0
Sky conditions: clear
Temperature: 82.0 F (27.8 C)
Dew Point: 75.9 F (24.4 C)
Relative Humidity: 81%
Pressure (altimeter): 29.99 in. Hg (1015 hPa)
Pressure tendency: 0.04 inches (1.2 hPa) lower than three hours ago
ob: KMSY 300553Z 00000KT 10SM CLR 28/24 A2999 RMK AO2 SLP158 T02780244 10328 20278 403440272 58012
cycle: 6

Station Type Date Time Source
KMSY TAF 2021/07/30 06:22 UTC NOAA

TAF KMSY 300520Z 3006/3112 VRB03KT P6SM FEW035 SCT250
FM301800 34005KT P6SM VCTS FEW030CB SCT250
FM302300 23006KT P6SM FEW045 BKN200

Example: see airport list